sensor_id;sensor_type;location;lat;lon;timestamp;pressure;altitude;pressure_sealevel;temperature;humidity
53246;BME280;39569;51.090;-1.786;2023-04-26T00:00:18;101180.91;;;15.16;42.16
53246;BME280;39569;51.090;-1.786;2023-04-26T00:02:46;101181.44;;;15.05;42.39
53246;BME280;39569;51.090;-1.786;2023-04-26T00:05:13;101181.78;;;15.02;42.36
53246;BME280;39569;51.090;-1.786;2023-04-26T00:07:42;101186.00;;;15.11;42.77
53246;BME280;39569;51.090;-1.786;2023-04-26T00:10:09;101185.28;;;14.96;42.99
53246;BME280;39569;51.090;-1.786;2023-04-26T00:12:36;101190.97;;;14.86;43.14
53246;BME280;39569;51.090;-1.786;2023-04-26T00:15:06;101186.91;;;14.97;42.59
53246;BME280;39569;51.090;-1.786;2023-04-26T00:17:34;101191.59;;;14.88;42.17
53246;BME280;39569;51.090;-1.786;2023-04-26T00:20:01;101187.38;;;14.79;42.32
53246;BME280;39569;51.090;-1.786;2023-04-26T00:22:33;101183.97;;;14.92;42.49
53246;BME280;39569;51.090;-1.786;2023-04-26T00:25:01;101179.59;;;14.91;42.29
53246;BME280;39569;51.090;-1.786;2023-04-26T00:27:28;101178.84;;;14.97;42.00
53246;BME280;39569;51.090;-1.786;2023-04-26T00:29:55;101171.53;;;14.91;42.13
53246;BME280;39569;51.090;-1.786;2023-04-26T00:32:22;101166.38;;;14.89;42.46
53246;BME280;39569;51.090;-1.786;2023-04-26T00:34:48;101159.19;;;14.96;42.45
53246;BME280;39569;51.090;-1.786;2023-04-26T00:37:15;101153.66;;;14.83;41.88
53246;BME280;39569;51.090;-1.786;2023-04-26T00:39:42;101133.84;;;14.84;42.18
53246;BME280;39569;51.090;-1.786;2023-04-26T00:42:10;101129.59;;;14.96;42.44
53246;BME280;39569;51.090;-1.786;2023-04-26T00:44:36;101121.09;;;14.93;42.34
53246;BME280;39569;51.090;-1.786;2023-04-26T00:47:04;101128.78;;;14.74;42.64
53246;BME280;39569;51.090;-1.786;2023-04-26T00:49:31;101125.31;;;14.81;42.35
53246;BME280;39569;51.090;-1.786;2023-04-26T00:51:58;101127.63;;;14.84;42.31
53246;BME280;39569;51.090;-1.786;2023-04-26T00:54:25;101121.16;;;14.99;41.76
53246;BME280;39569;51.090;-1.786;2023-04-26T00:56:53;101127.34;;;15.21;41.76
53246;BME280;39569;51.090;-1.786;2023-04-26T00:59:21;101112.38;;;15.12;41.85
53246;BME280;39569;51.090;-1.786;2023-04-26T01:01:48;101110.88;;;15.09;41.45
53246;BME280;39569;51.090;-1.786;2023-04-26T01:04:15;101108.47;;;15.14;41.34
53246;BME280;39569;51.090;-1.786;2023-04-26T01:06:42;101120.53;;;15.25;41.24
53246;BME280;39569;51.090;-1.786;2023-04-26T01:09:09;101117.97;;;15.17;41.53
53246;BME280;39569;51.090;-1.786;2023-04-26T01:11:39;101116.81;;;15.26;41.54
53246;BME280;39569;51.090;-1.786;2023-04-26T01:14:08;101117.41;;;15.21;41.34
53246;BME280;39569;51.090;-1.786;2023-04-26T01:16:37;101107.47;;;15.22;41.34
53246;BME280;39569;51.090;-1.786;2023-04-26T01:19:08;101107.09;;;15.25;40.96
53246;BME280;39569;51.090;-1.786;2023-04-26T01:21:37;101106.03;;;14.98;41.55
53246;BME280;39569;51.090;-1.786;2023-04-26T01:24:06;101112.78;;;15.36;41.05
53246;BME280;39569;51.090;-1.786;2023-04-26T01:26:34;101121.03;;;15.35;40.85
53246;BME280;39569;51.090;-1.786;2023-04-26T01:29:12;101123.28;;;15.52;40.74
53246;BME280;39569;51.090;-1.786;2023-04-26T01:31:39;101124.78;;;15.40;40.92
53246;BME280;39569;51.090;-1.786;2023-04-26T01:34:06;101123.28;;;15.52;41.19
53246;BME280;39569;51.090;-1.786;2023-04-26T01:36:32;101120.44;;;15.60;41.74
53246;BME280;39569;51.090;-1.786;2023-04-26T01:38:59;101115.47;;;15.64;42.25
53246;BME280;39569;51.090;-1.786;2023-04-26T01:41:27;101112.41;;;15.73;42.30
53246;BME280;39569;51.090;-1.786;2023-04-26T01:43:54;101108.22;;;15.64;42.32
53246;BME280;39569;51.090;-1.786;2023-04-26T01:46:21;101112.97;;;15.62;41.98
53246;BME280;39569;51.090;-1.786;2023-04-26T01:48:47;101100.25;;;15.50;42.31
53246;BME280;39569;51.090;-1.786;2023-04-26T01:51:14;101109.72;;;15.18;42.78
53246;BME280;39569;51.090;-1.786;2023-04-26T01:53:41;101104.19;;;15.26;42.09
53246;BME280;39569;51.090;-1.786;2023-04-26T01:56:07;101114.00;;;15.34;41.99
53246;BME280;39569;51.090;-1.786;2023-04-26T01:58:36;101106.72;;;15.55;41.69
53246;BME280;39569;51.090;-1.786;2023-04-26T02:01:07;101107.19;;;15.38;41.85
53246;BME280;39569;51.090;-1.786;2023-04-26T02:03:34;101110.47;;;15.33;42.50
53246;BME280;39569;51.090;-1.786;2023-04-26T02:06:01;101114.84;;;15.62;41.49
53246;BME280;39569;51.090;-1.786;2023-04-26T02:08:28;101110.25;;;15.90;41.21
53246;BME280;39569;51.090;-1.786;2023-04-26T02:10:55;101117.94;;;16.00;41.55
53246;BME280;39569;51.090;-1.786;2023-04-26T02:13:21;101112.75;;;15.98;41.85
53246;BME280;39569;51.090;-1.786;2023-04-26T02:15:50;101112.81;;;16.05;41.74
53246;BME280;39569;51.090;-1.786;2023-04-26T02:18:17;101110.91;;;15.99;42.09
53246;BME280;39569;51.090;-1.786;2023-04-26T02:20:46;101111.91;;;15.91;42.27
53246;BME280;39569;51.090;-1.786;2023-04-26T02:23:13;101106.28;;;15.86;41.70
53246;BME280;39569;51.090;-1.786;2023-04-26T02:25:44;101107.28;;;15.79;41.86
53246;BME280;39569;51.090;-1.786;2023-04-26T02:28:11;101110.13;;;15.70;42.17
53246;BME280;39569;51.090;-1.786;2023-04-26T02:30:37;101097.50;;;15.77;42.10
53246;BME280;39569;51.090;-1.786;2023-04-26T02:33:06;101092.31;;;15.69;42.46
53246;BME280;39569;51.090;-1.786;2023-04-26T02:35:33;101092.47;;;15.61;42.76
53246;BME280;39569;51.090;-1.786;2023-04-26T02:38:00;101094.94;;;15.63;42.69
53246;BME280;39569;51.090;-1.786;2023-04-26T02:40:27;101094.09;;;15.62;42.85
53246;BME280;39569;51.090;-1.786;2023-04-26T02:42:54;101102.19;;;15.62;42.92
53246;BME280;39569;51.090;-1.786;2023-04-26T02:45:21;101089.34;;;15.58;42.83
53246;BME280;39569;51.090;-1.786;2023-04-26T02:47:47;101090.84;;;15.39;43.12
53246;BME280;39569;51.090;-1.786;2023-04-26T02:50:16;101097.84;;;15.34;43.51
53246;BME280;39569;51.090;-1.786;2023-04-26T02:52:42;101099.59;;;15.41;43.16
53246;BME280;39569;51.090;-1.786;2023-04-26T02:55:09;101104.16;;;15.20;43.54
53246;BME280;39569;51.090;-1.786;2023-04-26T02:57:36;101095.59;;;15.37;43.60
53246;BME280;39569;51.090;-1.786;2023-04-26T03:00:03;101099.06;;;15.31;43.63
53246;BME280;39569;51.090;-1.786;2023-04-26T03:02:32;101098.75;;;15.41;43.40
53246;BME280;39569;51.090;-1.786;2023-04-26T03:04:58;101087.41;;;15.45;43.15
53246;BME280;39569;51.090;-1.786;2023-04-26T03:07:27;101094.28;;;15.27;43.32
53246;BME280;39569;51.090;-1.786;2023-04-26T03:09:53;101077.97;;;15.35;43.05
53246;BME280;39569;51.090;-1.786;2023-04-26T03:12:20;101076.09;;;15.35;43.50
53246;BME280;39569;51.090;-1.786;2023-04-26T03:14:47;101083.78;;;15.38;43.21
53246;BME280;39569;51.090;-1.786;2023-04-26T03:17:13;101072.78;;;15.33;43.28
53246;BME280;39569;51.090;-1.786;2023-04-26T03:19:40;101072.34;;;15.30;43.64
53246;BME280;39569;51.090;-1.786;2023-04-26T03:22:07;101073.38;;;15.29;43.48
53246;BME280;39569;51.090;-1.786;2023-04-26T03:24:37;101058.09;;;15.36;43.60
53246;BME280;39569;51.090;-1.786;2023-04-26T03:27:03;101055.78;;;15.33;43.35
53246;BME280;39569;51.090;-1.786;2023-04-26T03:29:30;101054.69;;;15.21;43.79
53246;BME280;39569;51.090;-1.786;2023-04-26T03:31:57;101049.75;;;15.24;43.68
53246;BME280;39569;51.090;-1.786;2023-04-26T03:34:23;101044.84;;;15.34;43.43
53246;BME280;39569;51.090;-1.786;2023-04-26T03:36:51;101042.97;;;15.35;43.27
53246;BME280;39569;51.090;-1.786;2023-04-26T03:39:18;101052.63;;;15.23;43.38
53246;BME280;39569;51.090;-1.786;2023-04-26T03:41:46;101043.56;;;15.58;43.13
53246;BME280;39569;51.090;-1.786;2023-04-26T03:44:13;101035.50;;;15.58;42.84
53246;BME280;39569;51.090;-1.786;2023-04-26T03:46:40;101037.81;;;15.67;43.00
53246;BME280;39569;51.090;-1.786;2023-04-26T03:49:06;101031.00;;;15.71;42.83
53246;BME280;39569;51.090;-1.786;2023-04-26T03:51:33;101023.09;;;15.63;42.59
53246;BME280;39569;51.090;-1.786;2023-04-26T03:54:00;101017.97;;;15.82;42.36
53246;BME280;39569;51.090;-1.786;2023-04-26T03:56:27;101013.28;;;15.49;42.67
53246;BME280;39569;51.090;-1.786;2023-04-26T03:58:56;101020.19;;;15.65;42.41
53246;BME280;39569;51.090;-1.786;2023-04-26T04:01:22;101018.91;;;15.61;42.80
53246;BME280;39569;51.090;-1.786;2023-04-26T04:03:50;101018.28;;;15.52;43.20
53246;BME280;39569;51.090;-1.786;2023-04-26T04:06:16;101007.16;;;15.68;42.66
53246;BME280;39569;51.090;-1.786;2023-04-26T04:08:43;101006.50;;;15.60;42.97
53246;BME280;39569;51.090;-1.786;2023-04-26T04:11:10;101008.31;;;15.94;42.49
53246;BME280;39569;51.090;-1.786;2023-04-26T04:13:36;101006.84;;;15.98;42.27
53246;BME280;39569;51.090;-1.786;2023-04-26T04:16:05;100997.69;;;15.86;42.73
53246;BME280;39569;51.090;-1.786;2023-04-26T04:18:34;101004.50;;;15.75;42.57
53246;BME280;39569;51.090;-1.786;2023-04-26T04:21:01;101001.22;;;15.93;42.37
53246;BME280;39569;51.090;-1.786;2023-04-26T04:23:28;101001.97;;;15.60;42.99
53246;BME280;39569;51.090;-1.786;2023-04-26T04:25:54;101001.75;;;15.62;43.29
53246;BME280;39569;51.090;-1.786;2023-04-26T04:28:22;101003.75;;;15.53;43.04
53246;BME280;39569;51.090;-1.786;2023-04-26T04:30:48;101005.56;;;15.81;43.01
53246;BME280;39569;51.090;-1.786;2023-04-26T04:33:16;101000.69;;;16.10;42.31
53246;BME280;39569;51.090;-1.786;2023-04-26T04:35:43;101008.63;;;15.77;42.96
53246;BME280;39569;51.090;-1.786;2023-04-26T04:38:10;100990.03;;;15.89;42.44
53246;BME280;39569;51.090;-1.786;2023-04-26T04:40:37;100997.28;;;15.82;42.82
53246;BME280;39569;51.090;-1.786;2023-04-26T04:43:04;100994.97;;;15.79;42.68
53246;BME280;39569;51.090;-1.786;2023-04-26T04:45:31;100992.38;;;16.18;42.15
53246;BME280;39569;51.090;-1.786;2023-04-26T04:47:57;100992.78;;;15.96;42.23
53246;BME280;39569;51.090;-1.786;2023-04-26T04:50:25;100987.19;;;16.04;42.35
53246;BME280;39569;51.090;-1.786;2023-04-26T04:52:52;100995.28;;;16.10;41.96
53246;BME280;39569;51.090;-1.786;2023-04-26T04:55:19;100993.81;;;16.08;42.18
53246;BME280;39569;51.090;-1.786;2023-04-26T04:57:45;100997.53;;;15.94;42.25
53246;BME280;39569;51.090;-1.786;2023-04-26T05:00:13;100994.22;;;15.98;42.43
53246;BME280;39569;51.090;-1.786;2023-04-26T05:02:40;100997.28;;;15.41;43.24
53246;BME280;39569;51.090;-1.786;2023-04-26T05:05:08;101006.06;;;15.56;43.29
53246;BME280;39569;51.090;-1.786;2023-04-26T05:07:37;101010.06;;;15.67;43.24
53246;BME280;39569;51.090;-1.786;2023-04-26T05:10:04;101002.91;;;15.94;42.46
53246;BME280;39569;51.090;-1.786;2023-04-26T05:12:31;101011.88;;;16.14;42.03
53246;BME280;39569;51.090;-1.786;2023-04-26T05:14:59;101014.81;;;16.25;41.86
53246;BME280;39569;51.090;-1.786;2023-04-26T05:17:26;101013.78;;;16.20;41.85
53246;BME280;39569;51.090;-1.786;2023-04-26T05:19:55;101016.81;;;15.97;42.31
53246;BME280;39569;51.090;-1.786;2023-04-26T05:22:21;101002.03;;;15.87;42.40
53246;BME280;39569;51.090;-1.786;2023-04-26T05:24:49;101006.69;;;16.12;41.88
53246;BME280;39569;51.090;-1.786;2023-04-26T05:27:16;101008.25;;;15.81;42.62
53246;BME280;39569;51.090;-1.786;2023-04-26T05:29:43;101008.97;;;16.22;41.69
53246;BME280;39569;51.090;-1.786;2023-04-26T05:32:10;101014.81;;;16.25;41.81
53246;BME280;39569;51.090;-1.786;2023-04-26T05:34:37;101009.00;;;16.35;41.63
53246;BME280;39569;51.090;-1.786;2023-04-26T05:37:03;101009.56;;;16.04;42.17
53246;BME280;39569;51.090;-1.786;2023-04-26T05:39:30;101008.94;;;16.02;42.49
53246;BME280;39569;51.090;-1.786;2023-04-26T05:41:58;101019.72;;;16.09;42.25
53246;BME280;39569;51.090;-1.786;2023-04-26T05:44:25;101020.91;;;15.87;42.59
53246;BME280;39569;51.090;-1.786;2023-04-26T05:46:52;101024.94;;;16.17;42.01
53246;BME280;39569;51.090;-1.786;2023-04-26T05:49:19;101021.53;;;16.49;41.62
53246;BME280;39569;51.090;-1.786;2023-04-26T05:51:46;101023.56;;;16.47;41.61
53246;BME280;39569;51.090;-1.786;2023-04-26T05:54:12;101027.31;;;15.86;42.75
53246;BME280;39569;51.090;-1.786;2023-04-26T05:56:39;101023.19;;;16.56;41.33
53246;BME280;39569;51.090;-1.786;2023-04-26T05:59:08;101024.22;;;16.55;41.32
53246;BME280;39569;51.090;-1.786;2023-04-26T06:01:34;101027.13;;;16.54;41.30
53246;BME280;39569;51.090;-1.786;2023-04-26T06:04:01;101024.44;;;16.54;41.25
53246;BME280;39569;51.090;-1.786;2023-04-26T06:06:28;101026.66;;;16.31;41.72
53246;BME280;39569;51.090;-1.786;2023-04-26T06:08:56;101024.56;;;16.46;41.74
53246;BME280;39569;51.090;-1.786;2023-04-26T06:11:23;101026.81;;;16.29;42.02
53246;BME280;39569;51.090;-1.786;2023-04-26T06:13:51;101023.19;;;16.56;41.65
53246;BME280;39569;51.090;-1.786;2023-04-26T06:16:21;101015.75;;;16.72;41.56
53246;BME280;39569;51.090;-1.786;2023-04-26T06:18:48;101020.69;;;16.61;41.49
53246;BME280;39569;51.090;-1.786;2023-04-26T06:21:15;101012.41;;;16.56;41.71
53246;BME280;39569;51.090;-1.786;2023-04-26T06:23:41;101008.47;;;16.72;41.53
53246;BME280;39569;51.090;-1.786;2023-04-26T06:26:08;101013.34;;;16.29;42.30
53246;BME280;39569;51.090;-1.786;2023-04-26T06:28:35;101008.47;;;16.52;42.45
53246;BME280;39569;51.090;-1.786;2023-04-26T06:31:01;101014.09;;;16.77;41.91
53246;BME280;39569;51.090;-1.786;2023-04-26T06:33:30;101009.50;;;16.91;41.76
53246;BME280;39569;51.090;-1.786;2023-04-26T06:35:56;101004.47;;;17.20;41.22
53246;BME280;39569;51.090;-1.786;2023-04-26T06:38:23;101000.34;;;16.98;41.54
53246;BME280;39569;51.090;-1.786;2023-04-26T06:40:50;100991.63;;;17.16;41.78
53246;BME280;39569;51.090;-1.786;2023-04-26T06:43:17;100987.97;;;17.61;40.73
53246;BME280;39569;51.090;-1.786;2023-04-26T06:45:43;101003.38;;;17.41;40.38
53246;BME280;39569;51.090;-1.786;2023-04-26T06:48:10;100995.84;;;17.69;40.12
53246;BME280;39569;51.090;-1.786;2023-04-26T06:50:38;100987.34;;;17.65;40.26
53246;BME280;39569;51.090;-1.786;2023-04-26T06:53:06;100989.97;;;17.02;41.61
53246;BME280;39569;51.090;-1.786;2023-04-26T06:55:33;100990.06;;;17.59;40.73
53246;BME280;39569;51.090;-1.786;2023-04-26T06:57:59;100995.28;;;17.41;41.07
53246;BME280;39569;51.090;-1.786;2023-04-26T07:00:26;100993.53;;;16.76;42.26
53246;BME280;39569;51.090;-1.786;2023-04-26T07:02:54;100995.81;;;16.73;42.67
53246;BME280;39569;51.090;-1.786;2023-04-26T07:05:21;100992.63;;;17.34;41.41
53246;BME280;39569;51.090;-1.786;2023-04-26T07:07:49;100988.72;;;17.81;40.52
53246;BME280;39569;51.090;-1.786;2023-04-26T07:10:16;100987.63;;;17.95;40.41
53246;BME280;39569;51.090;-1.786;2023-04-26T07:12:43;100993.59;;;18.04;40.67
53246;BME280;39569;51.090;-1.786;2023-04-26T07:15:10;100994.13;;;18.56;39.73
53246;BME280;39569;51.090;-1.786;2023-04-26T07:17:37;100993.13;;;18.76;39.29
53246;BME280;39569;51.090;-1.786;2023-04-26T07:20:04;100992.81;;;18.34;40.16
53246;BME280;39569;51.090;-1.786;2023-04-26T07:22:31;100996.06;;;18.05;39.76
53246;BME280;39569;51.090;-1.786;2023-04-26T07:24:59;101003.16;;;18.06;40.30
53246;BME280;39569;51.090;-1.786;2023-04-26T07:27:26;100998.16;;;18.03;40.55
53246;BME280;39569;51.090;-1.786;2023-04-26T07:29:53;101007.69;;;17.75;40.69
53246;BME280;39569;51.090;-1.786;2023-04-26T07:32:20;101007.13;;;17.46;41.57
53246;BME280;39569;51.090;-1.786;2023-04-26T07:34:47;100996.41;;;18.22;40.58
53246;BME280;39569;51.090;-1.786;2023-04-26T07:37:14;101002.09;;;18.38;40.65
53246;BME280;39569;51.090;-1.786;2023-04-26T07:39:41;100996.78;;;17.24;41.83
53246;BME280;39569;51.090;-1.786;2023-04-26T07:42:09;100998.22;;;17.97;40.74
53246;BME280;39569;51.090;-1.786;2023-04-26T07:44:36;101007.56;;;18.01;40.88
53246;BME280;39569;51.090;-1.786;2023-04-26T07:47:02;101001.59;;;17.15;42.12
53246;BME280;39569;51.090;-1.786;2023-04-26T07:49:29;100999.63;;;18.06;41.31
53246;BME280;39569;51.090;-1.786;2023-04-26T07:51:56;101000.81;;;17.72;41.63
53246;BME280;39569;51.090;-1.786;2023-04-26T07:54:26;100999.34;;;18.51;40.78
53246;BME280;39569;51.090;-1.786;2023-04-26T07:56:53;101000.78;;;18.54;40.59
53246;BME280;39569;51.090;-1.786;2023-04-26T07:59:21;101002.50;;;18.98;40.05
53246;BME280;39569;51.090;-1.786;2023-04-26T08:01:48;101006.38;;;19.08;39.34
53246;BME280;39569;51.090;-1.786;2023-04-26T08:04:16;101010.84;;;18.96;39.71
53246;BME280;39569;51.090;-1.786;2023-04-26T08:06:45;101001.41;;;19.48;39.21
53246;BME280;39569;51.090;-1.786;2023-04-26T08:09:12;101008.38;;;18.95;39.78
53246;BME280;39569;51.090;-1.786;2023-04-26T08:11:39;101010.59;;;18.80;39.87
53246;BME280;39569;51.090;-1.786;2023-04-26T08:14:06;101006.25;;;18.72;39.95
53246;BME280;39569;51.090;-1.786;2023-04-26T08:16:34;101000.03;;;19.14;39.66
53246;BME280;39569;51.090;-1.786;2023-04-26T08:19:01;100997.31;;;18.96;39.99
53246;BME280;39569;51.090;-1.786;2023-04-26T08:21:28;100992.97;;;19.56;38.84
53246;BME280;39569;51.090;-1.786;2023-04-26T08:23:55;100986.59;;;19.32;38.95
53246;BME280;39569;51.090;-1.786;2023-04-26T08:26:22;100993.41;;;19.71;38.67
53246;BME280;39569;51.090;-1.786;2023-04-26T08:28:49;101001.72;;;19.40;38.62
53246;BME280;39569;51.090;-1.786;2023-04-26T08:31:16;101013.81;;;19.13;39.91
53246;BME280;39569;51.090;-1.786;2023-04-26T08:33:44;101019.88;;;18.66;40.48
53246;BME280;39569;51.090;-1.786;2023-04-26T08:36:11;101016.13;;;18.91;39.61
53246;BME280;39569;51.090;-1.786;2023-04-26T08:38:38;101019.66;;;18.92;40.31
53246;BME280;39569;51.090;-1.786;2023-04-26T08:41:05;101011.94;;;19.56;39.21
53246;BME280;39569;51.090;-1.786;2023-04-26T08:43:36;101004.84;;;19.91;38.47
53246;BME280;39569;51.090;-1.786;2023-04-26T08:46:06;101004.53;;;19.99;38.32
53246;BME280;39569;51.090;-1.786;2023-04-26T08:48:35;101012.97;;;19.55;38.99
53246;BME280;39569;51.090;-1.786;2023-04-26T08:51:05;101003.13;;;19.42;38.53
53246;BME280;39569;51.090;-1.786;2023-04-26T08:53:35;101010.88;;;19.39;39.71
53246;BME280;39569;51.090;-1.786;2023-04-26T08:56:03;101006.84;;;20.14;38.66
53246;BME280;39569;51.090;-1.786;2023-04-26T08:58:30;101001.31;;;20.20;38.13
53246;BME280;39569;51.090;-1.786;2023-04-26T09:00:58;101004.19;;;20.78;36.65
53246;BME280;39569;51.090;-1.786;2023-04-26T09:03:27;101005.97;;;20.73;37.66
53246;BME280;39569;51.090;-1.786;2023-04-26T09:05:55;101004.94;;;21.31;36.94
53246;BME280;39569;51.090;-1.786;2023-04-26T09:08:24;101003.88;;;21.32;36.63
53246;BME280;39569;51.090;-1.786;2023-04-26T09:10:52;100999.41;;;21.38;36.70
53246;BME280;39569;51.090;-1.786;2023-04-26T09:13:19;101009.91;;;21.00;37.09
53246;BME280;39569;51.090;-1.786;2023-04-26T09:15:47;101007.53;;;21.03;36.52
53246;BME280;39569;51.090;-1.786;2023-04-26T09:18:18;101000.91;;;21.45;37.48
53246;BME280;39569;51.090;-1.786;2023-04-26T09:21:00;100993.38;;;21.87;35.29
53246;BME280;39569;51.090;-1.786;2023-04-26T09:23:29;101003.00;;;21.55;36.39
53246;BME280;39569;51.090;-1.786;2023-04-26T09:26:13;100998.66;;;21.94;35.46
53246;BME280;39569;51.090;-1.786;2023-04-26T09:28:40;100991.34;;;21.43;35.10
53246;BME280;39569;51.090;-1.786;2023-04-26T09:31:07;101005.16;;;20.95;36.54
53246;BME280;39569;51.090;-1.786;2023-04-26T09:33:33;101010.03;;;21.05;36.51
53246;BME280;39569;51.090;-1.786;2023-04-26T09:36:10;101012.63;;;21.11;36.52
53246;BME280;39569;51.090;-1.786;2023-04-26T09:38:42;100992.25;;;21.60;35.65
53246;BME280;39569;51.090;-1.786;2023-04-26T09:41:08;101003.41;;;21.35;35.27
53246;BME280;39569;51.090;-1.786;2023-04-26T09:43:36;101003.59;;;22.53;34.00
53246;BME280;39569;51.090;-1.786;2023-04-26T09:46:03;100996.72;;;22.62;34.54
53246;BME280;39569;51.090;-1.786;2023-04-26T09:48:31;100996.84;;;23.38;33.50
53246;BME280;39569;51.090;-1.786;2023-04-26T09:51:08;101001.50;;;22.88;33.63
53246;BME280;39569;51.090;-1.786;2023-04-26T09:53:37;100992.38;;;23.71;32.66
53246;BME280;39569;51.090;-1.786;2023-04-26T09:56:10;100996.41;;;23.68;33.01
53246;BME280;39569;51.090;-1.786;2023-04-26T09:58:39;100992.00;;;23.62;32.98
53246;BME280;39569;51.090;-1.786;2023-04-26T10:01:07;100995.69;;;23.99;32.05
53246;BME280;39569;51.090;-1.786;2023-04-26T10:03:34;100994.19;;;23.65;32.78
53246;BME280;39569;51.090;-1.786;2023-04-26T10:06:02;101002.06;;;22.57;34.17
53246;BME280;39569;51.090;-1.786;2023-04-26T10:08:30;101005.66;;;22.46;34.07
53246;BME280;39569;51.090;-1.786;2023-04-26T10:10:57;100996.59;;;23.23;33.10
53246;BME280;39569;51.090;-1.786;2023-04-26T10:13:27;100997.88;;;22.83;34.17
53246;BME280;39569;51.090;-1.786;2023-04-26T10:15:54;100989.56;;;22.44;33.71
53246;BME280;39569;51.090;-1.786;2023-04-26T10:18:22;100994.63;;;21.57;35.34
53246;BME280;39569;51.090;-1.786;2023-04-26T10:20:51;100995.53;;;22.13;34.79
53246;BME280;39569;51.090;-1.786;2023-04-26T10:23:20;100994.38;;;22.54;35.07
53246;BME280;39569;51.090;-1.786;2023-04-26T10:25:50;101001.59;;;22.04;34.61
53246;BME280;39569;51.090;-1.786;2023-04-26T10:28:18;101000.31;;;22.06;34.21
53246;BME280;39569;51.090;-1.786;2023-04-26T10:31:05;100995.63;;;23.13;33.19
53246;BME280;39569;51.090;-1.786;2023-04-26T10:33:33;100996.88;;;22.56;34.20
53246;BME280;39569;51.090;-1.786;2023-04-26T10:36:05;100991.19;;;22.57;33.61
53246;BME280;39569;51.090;-1.786;2023-04-26T10:38:33;100995.88;;;23.11;34.51
53246;BME280;39569;51.090;-1.786;2023-04-26T10:41:29;100999.94;;;22.59;34.47
53246;BME280;39569;51.090;-1.786;2023-04-26T10:43:57;101000.38;;;22.68;34.10
53246;BME280;39569;51.090;-1.786;2023-04-26T10:46:34;100985.38;;;23.80;32.88
53246;BME280;39569;51.090;-1.786;2023-04-26T10:49:15;100990.81;;;23.36;33.27
53246;BME280;39569;51.090;-1.786;2023-04-26T10:52:07;100987.59;;;23.39;32.63
53246;BME280;39569;51.090;-1.786;2023-04-26T10:54:55;100989.69;;;22.99;33.33
53246;BME280;39569;51.090;-1.786;2023-04-26T11:00:18;100970.34;;;23.17;33.14
53246;BME280;39569;51.090;-1.786;2023-04-26T11:02:52;100981.44;;;22.78;33.51
53246;BME280;39569;51.090;-1.786;2023-04-26T11:05:36;100976.28;;;23.31;32.69
53246;BME280;39569;51.090;-1.786;2023-04-26T11:08:06;100986.91;;;22.61;33.40
53246;BME280;39569;51.090;-1.786;2023-04-26T11:10:36;100980.41;;;23.33;32.77
53246;BME280;39569;51.090;-1.786;2023-04-26T11:13:03;100983.25;;;23.05;33.26
53246;BME280;39569;51.090;-1.786;2023-04-26T11:15:30;100969.69;;;24.72;31.83
53246;BME280;39569;51.090;-1.786;2023-04-26T11:18:01;100977.75;;;24.88;30.45
53246;BME280;39569;51.090;-1.786;2023-04-26T11:20:28;100979.72;;;23.86;31.51
53246;BME280;39569;51.090;-1.786;2023-04-26T11:22:56;100981.38;;;23.27;32.91
53246;BME280;39569;51.090;-1.786;2023-04-26T11:25:24;100979.31;;;22.63;33.10
53246;BME280;39569;51.090;-1.786;2023-04-26T11:27:56;100969.19;;;23.13;34.36
53246;BME280;39569;51.090;-1.786;2023-04-26T11:30:23;100975.84;;;23.39;32.57
53246;BME280;39569;51.090;-1.786;2023-04-26T11:32:50;100985.25;;;22.93;34.15
53246;BME280;39569;51.090;-1.786;2023-04-26T11:35:20;100985.31;;;21.52;36.06
53246;BME280;39569;51.090;-1.786;2023-04-26T11:37:47;100981.88;;;22.25;34.00
53246;BME280;39569;51.090;-1.786;2023-04-26T11:40:16;100981.31;;;23.61;32.45
53246;BME280;39569;51.090;-1.786;2023-04-26T11:42:43;100978.00;;;23.59;32.63
53246;BME280;39569;51.090;-1.786;2023-04-26T11:45:10;100985.94;;;23.22;33.03
53246;BME280;39569;51.090;-1.786;2023-04-26T11:47:37;100986.56;;;23.46;32.85
53246;BME280;39569;51.090;-1.786;2023-04-26T11:50:06;100988.63;;;22.22;34.30
53246;BME280;39569;51.090;-1.786;2023-04-26T11:52:35;100987.97;;;22.15;34.34
53246;BME280;39569;51.090;-1.786;2023-04-26T11:55:04;100990.41;;;21.89;34.89
53246;BME280;39569;51.090;-1.786;2023-04-26T11:57:31;100985.91;;;22.67;33.88
53246;BME280;39569;51.090;-1.786;2023-04-26T12:00:13;100984.69;;;22.58;34.10
53246;BME280;39569;51.090;-1.786;2023-04-26T12:02:44;100974.25;;;22.88;34.47
53246;BME280;39569;51.090;-1.786;2023-04-26T12:05:20;100964.75;;;23.46;33.77
53246;BME280;39569;51.090;-1.786;2023-04-26T12:07:50;100961.84;;;23.74;32.17
53246;BME280;39569;51.090;-1.786;2023-04-26T12:10:19;100954.91;;;23.66;32.30
53246;BME280;39569;51.090;-1.786;2023-04-26T12:12:47;100963.16;;;22.73;34.20
53246;BME280;39569;51.090;-1.786;2023-04-26T12:15:15;100969.00;;;21.92;34.49
53246;BME280;39569;51.090;-1.786;2023-04-26T12:17:55;100963.53;;;22.98;34.08
53246;BME280;39569;51.090;-1.786;2023-04-26T12:20:29;100960.16;;;23.68;34.09
53246;BME280;39569;51.090;-1.786;2023-04-26T12:23:02;100965.59;;;23.46;33.92
53246;BME280;39569;51.090;-1.786;2023-04-26T12:25:30;100957.56;;;23.01;33.31
53246;BME280;39569;51.090;-1.786;2023-04-26T12:27:58;100964.41;;;23.04;33.78
53246;BME280;39569;51.090;-1.786;2023-04-26T12:30:26;100956.16;;;23.15;33.80
53246;BME280;39569;51.090;-1.786;2023-04-26T12:32:53;100962.97;;;23.34;32.83
53246;BME280;39569;51.090;-1.786;2023-04-26T12:35:21;100969.06;;;22.70;33.82
53246;BME280;39569;51.090;-1.786;2023-04-26T12:37:48;100965.63;;;22.30;34.83
53246;BME280;39569;51.090;-1.786;2023-04-26T12:40:19;100972.50;;;22.49;36.60
53246;BME280;39569;51.090;-1.786;2023-04-26T12:42:47;100969.25;;;23.18;33.69
53246;BME280;39569;51.090;-1.786;2023-04-26T12:45:14;100967.09;;;24.02;33.40
53246;BME280;39569;51.090;-1.786;2023-04-26T12:47:41;100971.84;;;23.08;33.44